KDUJ/DUJ METAR and TAF weather

Enter ICAO airport designator
Station Type Date Time Source
KDUJ METAR 2024/06/16 08:53 UTC NOAA

KDUJ 160853Z AUTO 08006KT 10SM CLR 13/08 A3020 RMK AO2 SLP218 T01280083 51010


Station Type Date Time Source
KDUJ Decoded METAR 2024/06/16 08:53 UTC NOAA

DU BOIS-JEFFERSON COUNTY, PA, United States (KDUJ) 41-11N 078-53W
Jun 16, 2024 - 04:53 AM EDT / 2024.06.16 0853 UTC
Wind: from the E (080 degrees) at 7 MPH (6 KT):0
Visibility: 10 mile(s):0
Sky conditions: clear
Temperature: 55.0 F (12.8 C)
Dew Point: 46.9 F (8.3 C)
Relative Humidity: 74%
Pressure (altimeter): 30.2 in. Hg (1022 hPa)
Pressure tendency: 0.03 inches (1.0 hPa) higher than three hours ago
ob: KDUJ 160853Z AUTO 08006KT 10SM CLR 13/08 A3020 RMK AO2 SLP218 T01280083 51010
cycle: 9

Station Type Date Time Source
KDUJ TAF 2024/06/16 06:22 UTC NOAA